sensor_id;sensor_type;location;lat;lon;timestamp;P1;durP1;ratioP1;P2;durP2;ratioP2
17826;SDS011;9038;48.208;16.308;2024-03-02T00:01:35;73.63;;;39.87;;
17826;SDS011;9038;48.208;16.308;2024-03-02T00:03:38;67.67;;;39.53;;
17826;SDS011;9038;48.208;16.308;2024-03-02T00:05:40;70.20;;;40.43;;
17826;SDS011;9038;48.208;16.308;2024-03-02T00:07:44;74.07;;;40.33;;
17826;SDS011;9038;48.208;16.308;2024-03-02T00:09:46;64.93;;;38.10;;
17826;SDS011;9038;48.208;16.308;2024-03-02T00:11:48;66.37;;;39.10;;
17826;SDS011;9038;48.208;16.308;2024-03-02T00:13:52;69.93;;;40.13;;
17826;SDS011;9038;48.208;16.308;2024-03-02T00:15:54;183.57;;;117.20;;
17826;SDS011;9038;48.208;16.308;2024-03-02T00:17:56;76.73;;;41.20;;
17826;SDS011;9038;48.208;16.308;2024-03-02T00:19:58;68.17;;;38.57;;
17826;SDS011;9038;48.208;16.308;2024-03-02T00:22:00;65.13;;;38.03;;
17826;SDS011;9038;48.208;16.308;2024-03-02T00:24:06;67.63;;;38.50;;
17826;SDS011;9038;48.208;16.308;2024-03-02T00:26:11;71.07;;;38.10;;
17826;SDS011;9038;48.208;16.308;2024-03-02T00:28:14;66.90;;;38.27;;
17826;SDS011;9038;48.208;16.308;2024-03-02T00:32:36;65.23;;;36.70;;
17826;SDS011;9038;48.208;16.308;2024-03-02T00:34:39;75.57;;;39.40;;
17826;SDS011;9038;48.208;16.308;2024-03-02T00:36:41;65.37;;;38.27;;
17826;SDS011;9038;48.208;16.308;2024-03-02T00:38:44;64.40;;;37.97;;
17826;SDS011;9038;48.208;16.308;2024-03-02T00:40:48;69.30;;;38.53;;
17826;SDS011;9038;48.208;16.308;2024-03-02T00:42:50;72.10;;;37.90;;
17826;SDS011;9038;48.208;16.308;2024-03-02T00:44:52;67.33;;;39.07;;
17826;SDS011;9038;48.208;16.308;2024-03-02T00:46:54;67.90;;;38.53;;
17826;SDS011;9038;48.208;16.308;2024-03-02T00:48:57;69.63;;;38.20;;
17826;SDS011;9038;48.208;16.308;2024-03-02T00:51:00;70.37;;;38.97;;
17826;SDS011;9038;48.208;16.308;2024-03-02T00:53:01;68.03;;;38.93;;
17826;SDS011;9038;48.208;16.308;2024-03-02T00:55:04;71.87;;;39.70;;
17826;SDS011;9038;48.208;16.308;2024-03-02T00:57:09;73.30;;;39.20;;
17826;SDS011;9038;48.208;16.308;2024-03-02T00:59:12;64.77;;;37.33;;
17826;SDS011;9038;48.208;16.308;2024-03-02T01:01:14;85.80;;;48.33;;
17826;SDS011;9038;48.208;16.308;2024-03-02T01:03:17;76.17;;;41.07;;
17826;SDS011;9038;48.208;16.308;2024-03-02T01:05:19;63.73;;;37.70;;
17826;SDS011;9038;48.208;16.308;2024-03-02T01:07:21;67.40;;;38.10;;
17826;SDS011;9038;48.208;16.308;2024-03-02T01:09:23;68.87;;;37.13;;
17826;SDS011;9038;48.208;16.308;2024-03-02T01:11:25;67.93;;;38.40;;
17826;SDS011;9038;48.208;16.308;2024-03-02T01:13:29;68.27;;;36.97;;
17826;SDS011;9038;48.208;16.308;2024-03-02T01:15:30;66.53;;;37.77;;
17826;SDS011;9038;48.208;16.308;2024-03-02T01:17:33;68.77;;;37.23;;
17826;SDS011;9038;48.208;16.308;2024-03-02T01:19:35;64.70;;;36.47;;
17826;SDS011;9038;48.208;16.308;2024-03-02T01:21:38;66.90;;;37.83;;
17826;SDS011;9038;48.208;16.308;2024-03-02T01:23:40;62.03;;;36.73;;
17826;SDS011;9038;48.208;16.308;2024-03-02T01:25:42;66.40;;;37.13;;
17826;SDS011;9038;48.208;16.308;2024-03-02T01:27:44;63.87;;;37.37;;
17826;SDS011;9038;48.208;16.308;2024-03-02T01:29:47;63.87;;;35.87;;
17826;SDS011;9038;48.208;16.308;2024-03-02T01:31:50;60.93;;;36.33;;
17826;SDS011;9038;48.208;16.308;2024-03-02T01:33:53;66.40;;;37.13;;
17826;SDS011;9038;48.208;16.308;2024-03-02T01:35:55;60.13;;;36.37;;
17826;SDS011;9038;48.208;16.308;2024-03-02T01:37:57;63.00;;;36.10;;
17826;SDS011;9038;48.208;16.308;2024-03-02T01:39:58;69.40;;;37.03;;
17826;SDS011;9038;48.208;16.308;2024-03-02T01:42:00;64.37;;;37.60;;
17826;SDS011;9038;48.208;16.308;2024-03-02T01:44:03;65.93;;;37.90;;
17826;SDS011;9038;48.208;16.308;2024-03-02T01:46:07;66.87;;;38.30;;
17826;SDS011;9038;48.208;16.308;2024-03-02T01:48:09;67.47;;;38.23;;
17826;SDS011;9038;48.208;16.308;2024-03-02T01:50:11;65.80;;;37.23;;
17826;SDS011;9038;48.208;16.308;2024-03-02T01:52:13;68.30;;;39.57;;
17826;SDS011;9038;48.208;16.308;2024-03-02T01:54:15;68.97;;;36.43;;
17826;SDS011;9038;48.208;16.308;2024-03-02T01:56:17;66.10;;;37.67;;
17826;SDS011;9038;48.208;16.308;2024-03-02T01:58:20;61.57;;;35.87;;
17826;SDS011;9038;48.208;16.308;2024-03-02T02:00:22;61.50;;;35.63;;
17826;SDS011;9038;48.208;16.308;2024-03-02T02:02:26;56.33;;;34.23;;
17826;SDS011;9038;48.208;16.308;2024-03-02T02:04:28;61.70;;;35.43;;
17826;SDS011;9038;48.208;16.308;2024-03-02T02:06:31;61.80;;;35.13;;
17826;SDS011;9038;48.208;16.308;2024-03-02T02:08:33;59.70;;;35.03;;
17826;SDS011;9038;48.208;16.308;2024-03-02T02:10:36;55.77;;;34.77;;
17826;SDS011;9038;48.208;16.308;2024-03-02T02:12:38;61.20;;;35.63;;
17826;SDS011;9038;48.208;16.308;2024-03-02T02:14:46;57.83;;;34.23;;
17826;SDS011;9038;48.208;16.308;2024-03-02T02:16:48;60.47;;;35.47;;
17826;SDS011;9038;48.208;16.308;2024-03-02T02:18:53;59.13;;;34.87;;
17826;SDS011;9038;48.208;16.308;2024-03-02T02:20:54;55.27;;;33.63;;
17826;SDS011;9038;48.208;16.308;2024-03-02T02:22:58;56.87;;;33.33;;
17826;SDS011;9038;48.208;16.308;2024-03-02T02:25:00;61.33;;;34.07;;
17826;SDS011;9038;48.208;16.308;2024-03-02T02:27:02;55.67;;;34.23;;
17826;SDS011;9038;48.208;16.308;2024-03-02T02:29:04;58.77;;;35.10;;
17826;SDS011;9038;48.208;16.308;2024-03-02T02:31:06;59.57;;;34.30;;
17826;SDS011;9038;48.208;16.308;2024-03-02T02:33:08;58.97;;;33.70;;
17826;SDS011;9038;48.208;16.308;2024-03-02T02:35:10;63.27;;;33.93;;
17826;SDS011;9038;48.208;16.308;2024-03-02T02:37:12;56.33;;;33.30;;
17826;SDS011;9038;48.208;16.308;2024-03-02T02:39:16;57.70;;;34.67;;
17826;SDS011;9038;48.208;16.308;2024-03-02T02:41:19;59.30;;;34.20;;
17826;SDS011;9038;48.208;16.308;2024-03-02T02:43:22;60.33;;;34.30;;
17826;SDS011;9038;48.208;16.308;2024-03-02T02:45:23;60.43;;;34.00;;
17826;SDS011;9038;48.208;16.308;2024-03-02T02:47:25;59.10;;;34.10;;
17826;SDS011;9038;48.208;16.308;2024-03-02T02:49:28;57.23;;;32.93;;
17826;SDS011;9038;48.208;16.308;2024-03-02T02:51:31;60.77;;;34.93;;
17826;SDS011;9038;48.208;16.308;2024-03-02T02:53:33;55.87;;;33.50;;
17826;SDS011;9038;48.208;16.308;2024-03-02T02:55:37;53.20;;;32.27;;
17826;SDS011;9038;48.208;16.308;2024-03-02T02:57:43;61.53;;;34.47;;
17826;SDS011;9038;48.208;16.308;2024-03-02T02:59:46;58.37;;;34.40;;
17826;SDS011;9038;48.208;16.308;2024-03-02T03:01:48;59.10;;;33.23;;
17826;SDS011;9038;48.208;16.308;2024-03-02T03:03:50;55.00;;;32.87;;
17826;SDS011;9038;48.208;16.308;2024-03-02T03:05:52;56.60;;;33.77;;
17826;SDS011;9038;48.208;16.308;2024-03-02T03:07:54;56.83;;;32.30;;
17826;SDS011;9038;48.208;16.308;2024-03-02T03:09:57;58.73;;;33.07;;
17826;SDS011;9038;48.208;16.308;2024-03-02T03:12:00;54.27;;;32.70;;
17826;SDS011;9038;48.208;16.308;2024-03-02T03:14:02;55.00;;;33.00;;
17826;SDS011;9038;48.208;16.308;2024-03-02T03:16:05;58.07;;;34.10;;
17826;SDS011;9038;48.208;16.308;2024-03-02T03:18:07;60.10;;;34.23;;
17826;SDS011;9038;48.208;16.308;2024-03-02T03:20:10;59.17;;;34.70;;
17826;SDS011;9038;48.208;16.308;2024-03-02T03:22:14;61.93;;;34.33;;
17826;SDS011;9038;48.208;16.308;2024-03-02T03:24:15;59.33;;;34.63;;
17826;SDS011;9038;48.208;16.308;2024-03-02T03:26:17;57.97;;;34.33;;
17826;SDS011;9038;48.208;16.308;2024-03-02T03:28:21;57.43;;;34.57;;
17826;SDS011;9038;48.208;16.308;2024-03-02T03:30:23;61.87;;;35.20;;
17826;SDS011;9038;48.208;16.308;2024-03-02T03:32:25;64.37;;;36.23;;
17826;SDS011;9038;48.208;16.308;2024-03-02T03:34:27;60.13;;;34.07;;
17826;SDS011;9038;48.208;16.308;2024-03-02T03:36:30;56.63;;;34.30;;
17826;SDS011;9038;48.208;16.308;2024-03-02T03:38:32;59.40;;;33.97;;
17826;SDS011;9038;48.208;16.308;2024-03-02T03:40:34;61.97;;;35.57;;
17826;SDS011;9038;48.208;16.308;2024-03-02T03:42:37;61.93;;;35.53;;
17826;SDS011;9038;48.208;16.308;2024-03-02T03:44:40;64.43;;;35.43;;
17826;SDS011;9038;48.208;16.308;2024-03-02T03:46:42;60.17;;;33.93;;
17826;SDS011;9038;48.208;16.308;2024-03-02T03:48:44;57.67;;;34.50;;
17826;SDS011;9038;48.208;16.308;2024-03-02T03:50:46;57.50;;;34.17;;
17826;SDS011;9038;48.208;16.308;2024-03-02T03:52:48;65.63;;;35.93;;
17826;SDS011;9038;48.208;16.308;2024-03-02T03:54:50;59.03;;;34.80;;
17826;SDS011;9038;48.208;16.308;2024-03-02T03:56:51;64.47;;;34.83;;
17826;SDS011;9038;48.208;16.308;2024-03-02T03:58:54;59.83;;;34.23;;
17826;SDS011;9038;48.208;16.308;2024-03-02T04:00:57;57.90;;;35.20;;
17826;SDS011;9038;48.208;16.308;2024-03-02T04:03:01;59.67;;;33.53;;
17826;SDS011;9038;48.208;16.308;2024-03-02T04:05:03;52.03;;;32.97;;
17826;SDS011;9038;48.208;16.308;2024-03-02T04:07:08;61.73;;;34.90;;
17826;SDS011;9038;48.208;16.308;2024-03-02T04:09:11;61.47;;;34.73;;
17826;SDS011;9038;48.208;16.308;2024-03-02T04:11:13;62.53;;;34.87;;
17826;SDS011;9038;48.208;16.308;2024-03-02T04:13:15;60.13;;;34.90;;
17826;SDS011;9038;48.208;16.308;2024-03-02T04:15:17;66.80;;;36.57;;
17826;SDS011;9038;48.208;16.308;2024-03-02T04:17:20;56.07;;;34.67;;
17826;SDS011;9038;48.208;16.308;2024-03-02T04:19:22;59.77;;;34.33;;
17826;SDS011;9038;48.208;16.308;2024-03-02T04:21:23;60.00;;;33.47;;
17826;SDS011;9038;48.208;16.308;2024-03-02T04:23:25;57.03;;;34.33;;
17826;SDS011;9038;48.208;16.308;2024-03-02T04:25:28;62.00;;;34.23;;
17826;SDS011;9038;48.208;16.308;2024-03-02T04:27:30;63.17;;;34.93;;
17826;SDS011;9038;48.208;16.308;2024-03-02T04:29:33;60.37;;;33.93;;
17826;SDS011;9038;48.208;16.308;2024-03-02T04:31:34;60.67;;;34.90;;
17826;SDS011;9038;48.208;16.308;2024-03-02T04:33:38;62.23;;;35.67;;
17826;SDS011;9038;48.208;16.308;2024-03-02T04:35:40;63.00;;;34.90;;
17826;SDS011;9038;48.208;16.308;2024-03-02T04:37:42;62.67;;;34.27;;
17826;SDS011;9038;48.208;16.308;2024-03-02T04:39:44;61.20;;;34.53;;
17826;SDS011;9038;48.208;16.308;2024-03-02T04:41:46;61.57;;;35.20;;
17826;SDS011;9038;48.208;16.308;2024-03-02T04:43:48;62.20;;;34.27;;
17826;SDS011;9038;48.208;16.308;2024-03-02T04:45:50;60.97;;;33.60;;
17826;SDS011;9038;48.208;16.308;2024-03-02T04:47:51;60.57;;;34.30;;
17826;SDS011;9038;48.208;16.308;2024-03-02T04:49:55;56.60;;;33.80;;
17826;SDS011;9038;48.208;16.308;2024-03-02T04:51:57;61.70;;;34.43;;
17826;SDS011;9038;48.208;16.308;2024-03-02T04:53:59;59.17;;;33.53;;
17826;SDS011;9038;48.208;16.308;2024-03-02T04:56:01;59.17;;;33.87;;
17826;SDS011;9038;48.208;16.308;2024-03-02T04:58:40;53.87;;;32.60;;
17826;SDS011;9038;48.208;16.308;2024-03-02T05:00:42;57.30;;;32.33;;
17826;SDS011;9038;48.208;16.308;2024-03-02T05:02:46;56.27;;;33.33;;
17826;SDS011;9038;48.208;16.308;2024-03-02T05:04:48;53.80;;;31.63;;
17826;SDS011;9038;48.208;16.308;2024-03-02T05:06:52;57.60;;;32.73;;
17826;SDS011;9038;48.208;16.308;2024-03-02T05:08:56;54.93;;;32.13;;
17826;SDS011;9038;48.208;16.308;2024-03-02T05:10:58;52.73;;;32.10;;
17826;SDS011;9038;48.208;16.308;2024-03-02T05:13:20;51.57;;;31.03;;
17826;SDS011;9038;48.208;16.308;2024-03-02T05:15:21;56.60;;;31.77;;
17826;SDS011;9038;48.208;16.308;2024-03-02T05:17:24;56.70;;;33.53;;
17826;SDS011;9038;48.208;16.308;2024-03-02T05:19:26;56.33;;;31.97;;
17826;SDS011;9038;48.208;16.308;2024-03-02T05:21:28;50.50;;;29.73;;
17826;SDS011;9038;48.208;16.308;2024-03-02T05:23:32;53.73;;;31.73;;
17826;SDS011;9038;48.208;16.308;2024-03-02T05:25:34;53.30;;;31.40;;
17826;SDS011;9038;48.208;16.308;2024-03-02T05:27:36;54.23;;;32.10;;
17826;SDS011;9038;48.208;16.308;2024-03-02T05:29:38;60.43;;;32.90;;
17826;SDS011;9038;48.208;16.308;2024-03-02T05:31:40;53.43;;;30.77;;
17826;SDS011;9038;48.208;16.308;2024-03-02T05:33:42;51.90;;;31.37;;
17826;SDS011;9038;48.208;16.308;2024-03-02T05:35:44;52.80;;;30.80;;
17826;SDS011;9038;48.208;16.308;2024-03-02T05:37:47;55.03;;;30.27;;
17826;SDS011;9038;48.208;16.308;2024-03-02T05:39:50;57.20;;;32.80;;
17826;SDS011;9038;48.208;16.308;2024-03-02T05:41:52;51.77;;;31.27;;
17826;SDS011;9038;48.208;16.308;2024-03-02T05:43:55;59.33;;;31.70;;
17826;SDS011;9038;48.208;16.308;2024-03-02T05:45:57;54.20;;;30.73;;
17826;SDS011;9038;48.208;16.308;2024-03-02T05:47:58;54.73;;;32.43;;
17826;SDS011;9038;48.208;16.308;2024-03-02T05:50:00;54.23;;;30.10;;
17826;SDS011;9038;48.208;16.308;2024-03-02T05:52:04;51.37;;;31.40;;
17826;SDS011;9038;48.208;16.308;2024-03-02T05:54:06;55.43;;;31.70;;
17826;SDS011;9038;48.208;16.308;2024-03-02T05:56:10;57.83;;;32.23;;
17826;SDS011;9038;48.208;16.308;2024-03-02T05:58:12;59.23;;;31.70;;
17826;SDS011;9038;48.208;16.308;2024-03-02T06:00:27;60.47;;;32.37;;
17826;SDS011;9038;48.208;16.308;2024-03-02T06:02:31;100.37;;;33.37;;
17826;SDS011;9038;48.208;16.308;2024-03-02T06:04:33;62.20;;;33.27;;
17826;SDS011;9038;48.208;16.308;2024-03-02T06:06:35;69.10;;;31.87;;
17826;SDS011;9038;48.208;16.308;2024-03-02T06:08:37;75.50;;;31.37;;
17826;SDS011;9038;48.208;16.308;2024-03-02T06:10:40;77.77;;;32.33;;
17826;SDS011;9038;48.208;16.308;2024-03-02T06:12:42;54.87;;;30.97;;
17826;SDS011;9038;48.208;16.308;2024-03-02T06:14:45;55.53;;;28.20;;
17826;SDS011;9038;48.208;16.308;2024-03-02T06:16:47;63.87;;;26.80;;
17826;SDS011;9038;48.208;16.308;2024-03-02T06:18:49;39.83;;;25.50;;
17826;SDS011;9038;48.208;16.308;2024-03-02T06:20:51;44.60;;;27.50;;
17826;SDS011;9038;48.208;16.308;2024-03-02T06:22:52;45.17;;;26.83;;
17826;SDS011;9038;48.208;16.308;2024-03-02T06:24:55;61.07;;;30.87;;
17826;SDS011;9038;48.208;16.308;2024-03-02T06:26:57;48.60;;;28.53;;
17826;SDS011;9038;48.208;16.308;2024-03-02T06:29:01;101.03;;;29.63;;
17826;SDS011;9038;48.208;16.308;2024-03-02T06:31:03;48.63;;;28.27;;
17826;SDS011;9038;48.208;16.308;2024-03-02T06:33:05;46.57;;;26.83;;
17826;SDS011;9038;48.208;16.308;2024-03-02T06:35:08;40.30;;;25.80;;
17826;SDS011;9038;48.208;16.308;2024-03-02T06:37:10;42.80;;;25.37;;
17826;SDS011;9038;48.208;16.308;2024-03-02T06:39:11;41.57;;;25.33;;
17826;SDS011;9038;48.208;16.308;2024-03-02T06:41:13;38.93;;;23.97;;
17826;SDS011;9038;48.208;16.308;2024-03-02T06:43:14;43.77;;;26.73;;
17826;SDS011;9038;48.208;16.308;2024-03-02T06:45:18;46.53;;;26.67;;
17826;SDS011;9038;48.208;16.308;2024-03-02T06:47:20;69.00;;;26.90;;
17826;SDS011;9038;48.208;16.308;2024-03-02T06:49:21;50.40;;;26.17;;
17826;SDS011;9038;48.208;16.308;2024-03-02T06:51:24;43.03;;;25.37;;
17826;SDS011;9038;48.208;16.308;2024-03-02T06:53:26;71.23;;;25.27;;
17826;SDS011;9038;48.208;16.308;2024-03-02T06:55:28;58.87;;;26.77;;
17826;SDS011;9038;48.208;16.308;2024-03-02T06:57:30;102.20;;;28.00;;
17826;SDS011;9038;48.208;16.308;2024-03-02T06:59:33;102.57;;;28.23;;
17826;SDS011;9038;48.208;16.308;2024-03-02T07:01:36;108.43;;;28.70;;
17826;SDS011;9038;48.208;16.308;2024-03-02T07:03:38;50.27;;;26.30;;
17826;SDS011;9038;48.208;16.308;2024-03-02T07:05:41;102.13;;;27.80;;
17826;SDS011;9038;48.208;16.308;2024-03-02T07:07:43;58.50;;;28.60;;
17826;SDS011;9038;48.208;16.308;2024-03-02T07:09:45;64.53;;;26.57;;
17826;SDS011;9038;48.208;16.308;2024-03-02T07:11:46;80.90;;;28.40;;
17826;SDS011;9038;48.208;16.308;2024-03-02T07:13:48;73.07;;;28.37;;
17826;SDS011;9038;48.208;16.308;2024-03-02T07:15:51;59.30;;;29.77;;
17826;SDS011;9038;48.208;16.308;2024-03-02T07:18:21;53.07;;;29.90;;
17826;SDS011;9038;48.208;16.308;2024-03-02T07:20:23;79.07;;;29.80;;
17826;SDS011;9038;48.208;16.308;2024-03-02T07:22:25;57.47;;;28.20;;
17826;SDS011;9038;48.208;16.308;2024-03-02T07:24:27;62.83;;;28.57;;
17826;SDS011;9038;48.208;16.308;2024-03-02T07:26:30;51.37;;;27.83;;
17826;SDS011;9038;48.208;16.308;2024-03-02T07:28:32;51.43;;;28.03;;
17826;SDS011;9038;48.208;16.308;2024-03-02T07:30:35;53.70;;;26.97;;
17826;SDS011;9038;48.208;16.308;2024-03-02T07:32:38;50.93;;;27.27;;
17826;SDS011;9038;48.208;16.308;2024-03-02T07:34:43;43.80;;;28.03;;
17826;SDS011;9038;48.208;16.308;2024-03-02T07:36:45;53.10;;;26.50;;
17826;SDS011;9038;48.208;16.308;2024-03-02T07:38:47;44.27;;;27.13;;
17826;SDS011;9038;48.208;16.308;2024-03-02T07:40:50;46.97;;;27.10;;
17826;SDS011;9038;48.208;16.308;2024-03-02T07:42:53;48.87;;;27.37;;
17826;SDS011;9038;48.208;16.308;2024-03-02T07:44:55;56.50;;;28.37;;
17826;SDS011;9038;48.208;16.308;2024-03-02T07:46:57;79.87;;;29.47;;
17826;SDS011;9038;48.208;16.308;2024-03-02T07:48:59;46.47;;;28.13;;
17826;SDS011;9038;48.208;16.308;2024-03-02T07:51:03;60.87;;;27.87;;
17826;SDS011;9038;48.208;16.308;2024-03-02T07:53:05;57.60;;;27.87;;
17826;SDS011;9038;48.208;16.308;2024-03-02T07:55:08;51.30;;;28.90;;
17826;SDS011;9038;48.208;16.308;2024-03-02T07:57:10;46.73;;;27.57;;
17826;SDS011;9038;48.208;16.308;2024-03-02T07:59:12;64.00;;;27.90;;
17826;SDS011;9038;48.208;16.308;2024-03-02T08:01:15;76.90;;;29.03;;
17826;SDS011;9038;48.208;16.308;2024-03-02T08:03:17;41.20;;;25.70;;
17826;SDS011;9038;48.208;16.308;2024-03-02T08:05:19;42.70;;;25.87;;
17826;SDS011;9038;48.208;16.308;2024-03-02T08:07:23;34.47;;;24.20;;
17826;SDS011;9038;48.208;16.308;2024-03-02T08:09:25;36.17;;;23.70;;
17826;SDS011;9038;48.208;16.308;2024-03-02T08:11:27;33.27;;;23.23;;
17826;SDS011;9038;48.208;16.308;2024-03-02T08:13:31;31.27;;;22.07;;
17826;SDS011;9038;48.208;16.308;2024-03-02T08:15:33;29.57;;;21.07;;
17826;SDS011;9038;48.208;16.308;2024-03-02T08:17:35;31.23;;;21.63;;
17826;SDS011;9038;48.208;16.308;2024-03-02T08:19:37;31.40;;;21.87;;
17826;SDS011;9038;48.208;16.308;2024-03-02T08:21:40;30.60;;;22.27;;
17826;SDS011;9038;48.208;16.308;2024-03-02T08:23:43;29.53;;;21.03;;
17826;SDS011;9038;48.208;16.308;2024-03-02T08:25:45;30.80;;;21.83;;
17826;SDS011;9038;48.208;16.308;2024-03-02T08:27:48;32.13;;;22.33;;
17826;SDS011;9038;48.208;16.308;2024-03-02T08:29:50;31.20;;;21.77;;
17826;SDS011;9038;48.208;16.308;2024-03-02T08:31:51;31.87;;;22.80;;
17826;SDS011;9038;48.208;16.308;2024-03-02T08:33:53;31.00;;;21.50;;
17826;SDS011;9038;48.208;16.308;2024-03-02T08:35:57;32.23;;;22.63;;
17826;SDS011;9038;48.208;16.308;2024-03-02T08:37:59;34.50;;;22.40;;
17826;SDS011;9038;48.208;16.308;2024-03-02T08:40:03;31.17;;;22.83;;
17826;SDS011;9038;48.208;16.308;2024-03-02T08:42:05;32.13;;;22.43;;
17826;SDS011;9038;48.208;16.308;2024-03-02T08:44:07;31.27;;;22.10;;
17826;SDS011;9038;48.208;16.308;2024-03-02T08:46:09;33.67;;;22.80;;
17826;SDS011;9038;48.208;16.308;2024-03-02T08:48:10;31.60;;;22.13;;
17826;SDS011;9038;48.208;16.308;2024-03-02T08:50:13;37.13;;;23.93;;
17826;SDS011;9038;48.208;16.308;2024-03-02T08:52:15;32.63;;;22.70;;
17826;SDS011;9038;48.208;16.308;2024-03-02T08:54:17;29.57;;;21.70;;
17826;SDS011;9038;48.208;16.308;2024-03-02T08:56:20;27.40;;;19.80;;
17826;SDS011;9038;48.208;16.308;2024-03-02T08:58:23;35.27;;;21.77;;
17826;SDS011;9038;48.208;16.308;2024-03-02T09:00:26;29.80;;;21.63;;
17826;SDS011;9038;48.208;16.308;2024-03-02T09:02:28;29.43;;;21.27;;
17826;SDS011;9038;48.208;16.308;2024-03-02T09:04:30;31.53;;;22.13;;
17826;SDS011;9038;48.208;16.308;2024-03-02T09:06:32;32.87;;;21.93;;
17826;SDS011;9038;48.208;16.308;2024-03-02T09:08:34;31.73;;;22.57;;
17826;SDS011;9038;48.208;16.308;2024-03-02T09:10:38;34.00;;;22.67;;
17826;SDS011;9038;48.208;16.308;2024-03-02T09:12:42;36.37;;;23.13;;
17826;SDS011;9038;48.208;16.308;2024-03-02T09:14:44;41.83;;;26.27;;
17826;SDS011;9038;48.208;16.308;2024-03-02T09:16:47;42.93;;;26.60;;
17826;SDS011;9038;48.208;16.308;2024-03-02T09:18:50;42.30;;;26.47;;
17826;SDS011;9038;48.208;16.308;2024-03-02T09:20:52;46.67;;;28.37;;
17826;SDS011;9038;48.208;16.308;2024-03-02T09:22:54;47.73;;;28.10;;
17826;SDS011;9038;48.208;16.308;2024-03-02T09:24:56;48.43;;;27.80;;
17826;SDS011;9038;48.208;16.308;2024-03-02T09:26:58;47.63;;;28.93;;
17826;SDS011;9038;48.208;16.308;2024-03-02T09:29:02;46.90;;;29.27;;
17826;SDS011;9038;48.208;16.308;2024-03-02T09:31:04;45.00;;;29.00;;
17826;SDS011;9038;48.208;16.308;2024-03-02T09:33:06;47.97;;;29.37;;
17826;SDS011;9038;48.208;16.308;2024-03-02T09:35:08;48.77;;;29.87;;
17826;SDS011;9038;48.208;16.308;2024-03-02T09:37:12;47.63;;;27.80;;
17826;SDS011;9038;48.208;16.308;2024-03-02T09:39:14;47.33;;;29.60;;
17826;SDS011;9038;48.208;16.308;2024-03-02T09:41:17;52.40;;;30.60;;
17826;SDS011;9038;48.208;16.308;2024-03-02T09:43:20;52.33;;;31.03;;
17826;SDS011;9038;48.208;16.308;2024-03-02T09:45:25;49.70;;;31.13;;
17826;SDS011;9038;48.208;16.308;2024-03-02T09:47:26;48.63;;;32.27;;
17826;SDS011;9038;48.208;16.308;2024-03-02T09:49:28;47.37;;;29.53;;
17826;SDS011;9038;48.208;16.308;2024-03-02T09:51:30;48.50;;;30.60;;
17826;SDS011;9038;48.208;16.308;2024-03-02T09:53:33;44.67;;;29.80;;
17826;SDS011;9038;48.208;16.308;2024-03-02T09:55:35;48.33;;;31.50;;
17826;SDS011;9038;48.208;16.308;2024-03-02T09:57:38;48.17;;;30.93;;
17826;SDS011;9038;48.208;16.308;2024-03-02T09:59:42;51.50;;;32.37;;
17826;SDS011;9038;48.208;16.308;2024-03-02T10:04:09;50.80;;;31.83;;
17826;SDS011;9038;48.208;16.308;2024-03-02T10:06:18;51.60;;;32.30;;
17826;SDS011;9038;48.208;16.308;2024-03-02T10:08:20;49.93;;;32.73;;
17826;SDS011;9038;48.208;16.308;2024-03-02T10:10:22;48.63;;;32.17;;
17826;SDS011;9038;48.208;16.308;2024-03-02T10:12:24;52.00;;;31.07;;
17826;SDS011;9038;48.208;16.308;2024-03-02T10:14:26;46.97;;;32.23;;
17826;SDS011;9038;48.208;16.308;2024-03-02T10:16:29;45.37;;;32.17;;
17826;SDS011;9038;48.208;16.308;2024-03-02T10:18:31;49.93;;;31.40;;
17826;SDS011;9038;48.208;16.308;2024-03-02T10:20:34;47.27;;;31.10;;
17826;SDS011;9038;48.208;16.308;2024-03-02T10:22:37;51.40;;;32.40;;
17826;SDS011;9038;48.208;16.308;2024-03-02T10:24:39;50.23;;;32.43;;
17826;SDS011;9038;48.208;16.308;2024-03-02T10:26:41;52.03;;;32.63;;
17826;SDS011;9038;48.208;16.308;2024-03-02T10:28:45;48.73;;;32.90;;
17826;SDS011;9038;48.208;16.308;2024-03-02T10:30:48;51.57;;;30.00;;
17826;SDS011;9038;48.208;16.308;2024-03-02T10:32:52;50.27;;;31.60;;
17826;SDS011;9038;48.208;16.308;2024-03-02T10:34:55;48.20;;;31.20;;
17826;SDS011;9038;48.208;16.308;2024-03-02T10:36:59;49.77;;;33.33;;
17826;SDS011;9038;48.208;16.308;2024-03-02T10:39:02;51.77;;;32.87;;
17826;SDS011;9038;48.208;16.308;2024-03-02T10:41:04;50.03;;;33.77;;
17826;SDS011;9038;48.208;16.308;2024-03-02T10:43:06;50.73;;;33.43;;
17826;SDS011;9038;48.208;16.308;2024-03-02T10:45:09;49.90;;;33.03;;
17826;SDS011;9038;48.208;16.308;2024-03-02T10:47:12;51.63;;;33.67;;
17826;SDS011;9038;48.208;16.308;2024-03-02T10:49:14;48.87;;;33.10;;
17826;SDS011;9038;48.208;16.308;2024-03-02T10:51:16;49.80;;;34.33;;
17826;SDS011;9038;48.208;16.308;2024-03-02T10:53:20;50.00;;;32.33;;
17826;SDS011;9038;48.208;16.308;2024-03-02T10:55:22;51.50;;;33.47;;
17826;SDS011;9038;48.208;16.308;2024-03-02T10:57:24;53.70;;;34.43;;
17826;SDS011;9038;48.208;16.308;2024-03-02T10:59:31;51.63;;;33.87;;
17826;SDS011;9038;48.208;16.308;2024-03-02T11:01:35;49.13;;;32.93;;
17826;SDS011;9038;48.208;16.308;2024-03-02T11:03:38;49.33;;;33.60;;
17826;SDS011;9038;48.208;16.308;2024-03-02T11:05:43;49.77;;;33.90;;
17826;SDS011;9038;48.208;16.308;2024-03-02T11:07:45;49.63;;;33.40;;
17826;SDS011;9038;48.208;16.308;2024-03-02T11:09:49;48.30;;;33.60;;
17826;SDS011;9038;48.208;16.308;2024-03-02T11:11:54;52.23;;;34.07;;
17826;SDS011;9038;48.208;16.308;2024-03-02T11:13:58;49.37;;;33.83;;
17826;SDS011;9038;48.208;16.308;2024-03-02T11:16:09;49.40;;;31.87;;
17826;SDS011;9038;48.208;16.308;2024-03-02T11:18:14;47.17;;;32.13;;
17826;SDS011;9038;48.208;16.308;2024-03-02T11:20:17;49.60;;;32.40;;
17826;SDS011;9038;48.208;16.308;2024-03-02T11:22:20;51.27;;;33.57;;
17826;SDS011;9038;48.208;16.308;2024-03-02T11:24:29;47.97;;;32.60;;
17826;SDS011;9038;48.208;16.308;2024-03-02T11:26:36;47.57;;;31.77;;
17826;SDS011;9038;48.208;16.308;2024-03-02T11:28:40;47.77;;;32.70;;
17826;SDS011;9038;48.208;16.308;2024-03-02T11:30:49;50.77;;;32.60;;
17826;SDS011;9038;48.208;16.308;2024-03-02T11:32:54;50.47;;;33.80;;
17826;SDS011;9038;48.208;16.308;2024-03-02T11:34:57;52.43;;;34.27;;
17826;SDS011;9038;48.208;16.308;2024-03-02T11:36:59;43.30;;;30.70;;
17826;SDS011;9038;48.208;16.308;2024-03-02T11:39:02;46.10;;;31.63;;
17826;SDS011;9038;48.208;16.308;2024-03-02T11:41:05;50.90;;;32.63;;
17826;SDS011;9038;48.208;16.308;2024-03-02T11:43:10;44.53;;;31.87;;
17826;SDS011;9038;48.208;16.308;2024-03-02T11:45:12;44.37;;;31.17;;
17826;SDS011;9038;48.208;16.308;2024-03-02T11:47:18;49.80;;;32.33;;
17826;SDS011;9038;48.208;16.308;2024-03-02T11:49:26;44.97;;;31.73;;
17826;SDS011;9038;48.208;16.308;2024-03-02T11:51:38;49.40;;;32.87;;
17826;SDS011;9038;48.208;16.308;2024-03-02T11:53:52;50.03;;;33.23;;
17826;SDS011;9038;48.208;16.308;2024-03-02T11:55:56;52.73;;;33.50;;
17826;SDS011;9038;48.208;16.308;2024-03-02T11:57:59;44.57;;;31.57;;
17826;SDS011;9038;48.208;16.308;2024-03-02T12:00:03;45.70;;;32.37;;
17826;SDS011;9038;48.208;16.308;2024-03-02T12:02:06;44.50;;;32.40;;
17826;SDS011;9038;48.208;16.308;2024-03-02T12:04:08;49.37;;;32.63;;